Time;durP1;ratioP1;P1;durP2;ratioP2;P2;SDS_P1;SDS_P2;PMS_P1;PMS_P2;Temp;Humidity;BMP_temperature;BMP_pressure;BME280_temperature;BME280_humidity;BME280_pressure;Samples;Min_cycle;Max_cycle;Signal;HPM_P1;HPM_P2
2022/06/15 00:01:42;;;;;;;4.35;2.00;;;13.90;99.90;;;;;;5046154;28;20071;-75
2022/06/15 00:04:08;;;;;;;4.72;2.13;;;14.00;99.90;;;;;;5025360;28;20051;-75
2022/06/15 00:06:38;;;;;;;2.42;2.00;;;13.90;99.90;;;;;;5026202;28;20475;-75
2022/06/15 00:09:05;;;;;;;3.78;2.20;;;13.80;99.90;;;;;;5043805;28;20028;-76
2022/06/15 00:11:34;;;;;;;3.97;1.90;;;13.80;99.90;;;;;;5039478;28;20096;-75
2022/06/15 00:14:05;;;;;;;3.35;1.80;;;13.90;99.90;;;;;;5040498;28;20066;-75
2022/06/15 00:16:30;;;;;;;3.08;2.10;;;14.00;99.90;;;;;;5023469;28;20028;-75
2022/06/15 00:18:56;;;;;;;2.45;2.20;;;13.80;99.90;;;;;;5044493;28;20018;-75
2022/06/15 00:21:22;;;;;;;4.47;2.10;;;13.90;99.90;;;;;;5026545;28;20391;-75
2022/06/15 00:23:48;;;;;;;2.70;1.90;;;13.90;99.90;;;;;;5043971;28;20097;-74
2022/06/15 00:26:15;;;;;;;4.53;1.92;;;13.90;99.90;;;;;;5036773;28;20110;-75
2022/06/15 00:28:41;;;;;;;4.03;2.17;;;13.90;99.90;;;;;;5043733;28;20484;-75
2022/06/15 00:31:07;;;;;;;2.40;1.77;;;13.90;99.90;;;;;;5048502;28;20025;-75
2022/06/15 00:33:33;;;;;;;5.00;2.28;;;13.90;99.90;;;;;;5037537;28;20080;-75
2022/06/15 00:36:01;;;;;;;4.65;2.15;;;13.70;99.90;;;;;;5047844;28;20075;-75
2022/06/15 00:38:30;;;;;;;4.25;2.42;;;14.00;99.90;;;;;;5041082;28;20021;-75
2022/06/15 00:40:57;;;;;;;2.72;2.05;;;13.60;99.90;;;;;;5045722;28;20071;-75
2022/06/15 00:43:42;;;;;;;4.20;2.10;;;13.80;99.90;;;;;;5044495;28;20502;-75
2022/06/15 00:46:28;;;;;;;4.95;2.33;;;13.80;99.90;;;;;;5042414;28;20083;-75
2022/06/15 00:49:01;;;;;;;2.92;1.80;;;13.70;99.90;;;;;;5029457;28;20025;-75
2022/06/15 00:51:28;;;;;;;2.88;2.30;;;13.50;99.90;;;;;;5022479;28;20017;-74
2022/06/15 00:53:56;;;;;;;4.53;2.33;;;13.40;99.90;;;;;;5028049;28;20032;-74
2022/06/15 00:56:24;;;;;;;3.38;2.15;;;13.40;99.90;;;;;;5043185;28;20402;-74
2022/06/15 00:58:52;;;;;;;4.00;2.47;;;13.30;99.90;;;;;;5044254;28;20467;-74
2022/06/15 01:01:18;;;;;;;3.67;2.20;;;13.50;99.90;;;;;;5040898;28;20049;-76
2022/06/15 01:03:49;;;;;;;3.33;2.10;;;13.50;99.90;;;;;;5029777;28;20528;-76
2022/06/15 01:06:23;;;;;;;4.20;2.22;;;13.60;99.90;;;;;;5041299;28;20048;-75
2022/06/15 01:09:00;;;;;;;3.55;2.20;;;13.50;99.90;;;;;;5025718;28;20028;-76
2022/06/15 01:11:52;;;;;;;3.10;1.95;;;13.50;99.90;;;;;;5033245;28;20013;-76
2022/06/15 01:14:30;;;;;;;3.80;2.40;;;13.60;99.90;;;;;;5037558;28;20100;-76
2022/06/15 01:17:14;;;;;;;4.78;2.50;;;13.60;99.90;;;;;;5040456;28;20021;-76
2022/06/15 01:20:15;;;;;;;5.65;2.00;;;13.50;99.90;;;;;;5043841;28;20100;-76
2022/06/15 01:22:40;;;;;;;5.28;2.17;;;13.70;99.90;;;;;;5040815;28;20019;-75
2022/06/15 01:25:39;;;;;;;5.68;2.30;;;13.70;99.90;;;;;;5034187;28;20033;-75
2022/06/15 01:28:23;;;;;;;3.72;2.00;;;13.70;99.90;;;;;;5046362;28;20017;-75
2022/06/15 01:31:09;;;;;;;3.35;2.10;;;13.60;99.90;;;;;;5042906;28;20031;-75
2022/06/15 01:34:01;;;;;;;4.97;2.13;;;13.50;99.90;;;;;;5038276;28;20052;-75
2022/06/15 01:36:37;;;;;;;2.85;1.90;;;13.40;99.90;;;;;;5007989;28;20029;-74
2022/06/15 01:39:11;;;;;;;5.45;2.42;;;13.40;99.90;;;;;;5003598;28;20025;-73
2022/06/15 01:41:59;;;;;;;4.38;2.30;;;13.30;99.90;;;;;;5010057;28;20033;-74
2022/06/15 01:44:34;;;;;;;4.05;2.40;;;13.30;99.90;;;;;;5025085;28;20464;-73
2022/06/15 01:47:04;;;;;;;4.40;2.72;;;13.40;99.90;;;;;;5019502;28;20036;-73
2022/06/15 01:49:36;;;;;;;4.40;2.25;;;13.40;99.90;;;;;;5018522;28;20040;-73
2022/06/15 01:52:05;;;;;;;4.28;2.20;;;13.40;99.90;;;;;;5022544;28;20037;-73
2022/06/15 01:54:39;;;;;;;3.72;2.10;;;13.20;99.90;;;;;;5014595;28;20085;-73
2022/06/15 01:57:07;;;;;;;4.45;2.28;;;13.20;99.90;;;;;;5021194;28;20022;-74
2022/06/15 01:59:41;;;;;;;9.68;2.40;;;13.40;99.90;;;;;;5016012;28;20099;-74
2022/06/15 02:02:40;;;;;;;3.97;2.38;;;13.30;99.90;;;;;;5013568;28;20025;-73
2022/06/15 02:05:17;;;;;;;3.85;2.25;;;13.30;99.90;;;;;;5031656;28;20028;-75
2022/06/15 02:07:56;;;;;;;3.60;2.40;;;13.30;99.90;;;;;;5018520;28;20061;-74
2022/06/15 02:10:35;;;;;;;6.85;2.33;;;13.20;99.90;;;;;;5017997;28;20065;-73
2022/06/15 02:13:12;;;;;;;3.50;2.28;;;13.10;99.90;;;;;;5020454;28;20430;-74
2022/06/15 02:15:42;;;;;;;3.15;2.30;;;13.10;99.90;;;;;;5013853;28;20021;-73
2022/06/15 02:18:11;;;;;;;4.10;2.40;;;13.20;99.90;;;;;;5021131;28;20030;-74
2022/06/15 02:20:43;;;;;;;6.05;2.50;;;13.00;99.90;;;;;;5024426;28;20144;-74
2022/06/15 02:23:11;;;;;;;3.67;2.92;;;13.10;99.90;;;;;;5005799;28;20395;-73
2022/06/15 02:25:41;;;;;;;3.83;2.63;;;12.90;99.90;;;;;;5008213;28;20029;-75
2022/06/15 02:28:07;;;;;;;7.57;2.92;;;12.80;99.90;;;;;;5024196;28;20032;-74
2022/06/15 02:30:33;;;;;;;2.97;2.22;;;12.80;99.90;;;;;;5000082;28;20025;-75
2022/06/15 02:33:11;;;;;;;3.38;2.25;;;12.80;99.90;;;;;;5001269;28;20554;-75
2022/06/15 02:35:36;;;;;;;4.68;2.22;;;12.80;99.90;;;;;;5003050;28;20120;-74
2022/06/15 02:38:02;;;;;;;3.70;2.20;;;12.70;99.90;;;;;;5016594;28;20121;-75
2022/06/15 02:40:27;;;;;;;6.60;2.58;;;12.80;99.90;;;;;;5022548;28;20467;-75
2022/06/15 02:42:53;;;;;;;5.13;2.55;;;12.60;99.90;;;;;;5003271;28;20431;-74
2022/06/15 02:45:26;;;;;;;4.57;2.40;;;12.50;99.90;;;;;;5022987;28;20018;-75
2022/06/15 02:47:52;;;;;;;3.75;2.58;;;12.40;99.90;;;;;;5004261;28;20022;-75
2022/06/15 02:50:21;;;;;;;4.28;2.60;;;12.50;99.90;;;;;;5034588;28;20026;-75
2022/06/15 02:52:59;;;;;;;4.45;2.42;;;12.50;99.90;;;;;;5034876;28;20040;-75
2022/06/15 02:55:25;;;;;;;3.88;2.38;;;12.50;99.90;;;;;;5024775;28;20048;-75
2022/06/15 02:58:20;;;;;;;6.20;3.00;;;12.40;99.90;;;;;;5018616;28;20406;-75
2022/06/15 03:00:46;;;;;;;2.83;2.42;;;12.50;99.90;;;;;;5023482;28;20047;-74
2022/06/15 03:03:12;;;;;;;3.40;2.45;;;12.50;99.90;;;;;;5027493;28;20446;-75
2022/06/15 03:05:37;;;;;;;5.05;2.65;;;12.40;99.90;;;;;;5028906;28;20040;-74
2022/06/15 03:08:03;;;;;;;5.82;2.60;;;12.30;99.90;;;;;;5027404;28;20049;-75
2022/06/15 03:10:29;;;;;;;4.13;2.95;;;12.40;99.90;;;;;;4996680;28;20033;-75
2022/06/15 03:12:54;;;;;;;4.60;2.67;;;12.40;99.90;;;;;;5022109;28;20032;-73
2022/06/15 03:15:20;;;;;;;3.97;2.63;;;12.30;99.90;;;;;;5033873;28;20025;-73
2022/06/15 03:17:45;;;;;;;3.75;2.60;;;12.30;99.90;;;;;;5004439;28;20025;-74
2022/06/15 03:20:12;;;;;;;3.38;2.45;;;12.30;99.90;;;;;;5015673;28;20053;-74
2022/06/15 03:22:38;;;;;;;2.92;2.28;;;12.30;99.90;;;;;;5021987;28;20018;-75
2022/06/15 03:25:04;;;;;;;3.78;2.55;;;12.30;99.90;;;;;;5021163;28;20029;-73
2022/06/15 03:27:30;;;;;;;3.25;2.63;;;12.30;99.90;;;;;;5026794;28;20026;-73
2022/06/15 03:29:56;;;;;;;4.50;2.67;;;12.20;99.90;;;;;;5011060;28;20120;-73
2022/06/15 03:32:21;;;;;;;4.63;2.80;;;12.20;99.90;;;;;;5009060;28;20508;-74
2022/06/15 03:34:47;;;;;;;4.28;2.75;;;12.20;99.90;;;;;;5028233;28;20110;-74
2022/06/15 03:37:13;;;;;;;4.65;2.90;;;12.20;99.90;;;;;;5016566;28;20025;-74
2022/06/15 03:39:38;;;;;;;5.05;3.13;;;12.30;99.90;;;;;;5020838;28;20026;-77
2022/06/15 03:42:14;;;;;;;5.20;3.10;;;12.30;99.90;;;;;;5009195;28;20057;-74
2022/06/15 03:44:41;;;;;;;4.97;2.70;;;12.40;99.90;;;;;;5009944;28;20021;-75
2022/06/15 03:47:20;;;;;;;3.40;2.83;;;12.50;99.90;;;;;;5021897;28;20038;-75
2022/06/15 03:49:48;;;;;;;4.50;3.05;;;12.60;99.90;;;;;;5002954;28;20075;-75
2022/06/15 03:52:15;;;;;;;5.03;2.78;;;12.50;99.90;;;;;;5004920;28;20575;-75
2022/06/15 03:54:41;;;;;;;5.50;3.13;;;12.50;99.90;;;;;;5027540;28;20104;-74
2022/06/15 03:57:07;;;;;;;5.47;2.60;;;12.40;99.90;;;;;;5007056;28;20120;-73
2022/06/15 03:59:33;;;;;;;5.95;3.00;;;12.70;99.90;;;;;;5002892;28;20029;-75
2022/06/15 04:01:58;;;;;;;4.10;3.03;;;12.60;99.90;;;;;;5022326;28;20029;-76
2022/06/15 04:04:24;;;;;;;4.63;3.03;;;12.60;99.90;;;;;;5027268;28;20033;-76
2022/06/15 04:06:50;;;;;;;5.10;3.00;;;12.30;99.90;;;;;;5024454;28;20052;-76
2022/06/15 04:09:23;;;;;;;4.88;3.08;;;12.20;99.90;;;;;;5029492;28;20041;-76
2022/06/15 04:12:01;;;;;;;2.92;2.55;;;12.30;99.90;;;;;;5007255;28;20030;-75
2022/06/15 04:14:30;;;;;;;4.63;2.55;;;12.40;99.90;;;;;;5020753;28;20617;-74
2022/06/15 04:16:56;;;;;;;3.85;2.80;;;12.10;99.90;;;;;;5032736;28;20044;-74
2022/06/15 04:19:22;;;;;;;4.28;2.50;;;12.40;99.90;;;;;;5003502;28;20028;-74
2022/06/15 04:21:48;;;;;;;5.72;3.08;;;12.70;99.90;;;;;;5019477;28;20109;-75
2022/06/15 04:24:15;;;;;;;5.70;2.70;;;12.80;99.90;;;;;;5008310;28;20022;-72
2022/06/15 04:26:42;;;;;;;4.35;2.83;;;12.90;99.90;;;;;;5027878;28;20156;-73
2022/06/15 04:29:08;;;;;;;4.93;2.72;;;13.00;99.90;;;;;;5025753;28;20085;-73
2022/06/15 04:31:34;;;;;;;5.22;2.80;;;13.10;99.90;;;;;;5026266;28;20032;-73
2022/06/15 04:34:00;;;;;;;4.53;2.80;;;13.30;99.90;;;;;;5003291;28;20029;-73
2022/06/15 04:36:29;;;;;;;6.03;2.97;;;13.50;99.90;;;;;;5019655;28;20517;-74
2022/06/15 04:38:55;;;;;;;4.93;2.78;;;13.60;99.90;;;;;;5007800;28;20018;-74
2022/06/15 04:41:20;;;;;;;4.72;2.58;;;13.60;99.90;;;;;;5026022;28;20023;-74
2022/06/15 04:43:46;;;;;;;4.95;2.67;;;13.60;99.90;;;;;;5003358;28;20023;-74
2022/06/15 04:46:12;;;;;;;3.55;2.60;;;13.80;99.90;;;;;;5019692;28;20018;-74
2022/06/15 04:48:38;;;;;;;5.50;2.83;;;13.40;99.90;;;;;;5032859;28;20068;-73
2022/06/15 04:51:16;;;;;;;4.45;2.80;;;13.30;99.90;;;;;;5032079;28;20033;-73
2022/06/15 04:53:42;;;;;;;4.95;2.53;;;13.70;99.90;;;;;;5023441;28;20030;-74
2022/06/15 04:56:08;;;;;;;4.95;3.08;;;13.80;99.90;;;;;;5028938;28;20369;-73
2022/06/15 04:58:33;;;;;;;4.32;3.90;;;14.00;99.90;;;;;;5023256;28;20080;-74
2022/06/15 05:00:59;;;;;;;7.00;3.15;;;14.20;99.90;;;;;;5025512;28;20105;-74
2022/06/15 05:03:25;;;;;;;4.82;2.80;;;14.40;99.90;;;;;;5012784;28;20147;-74
2022/06/15 05:05:57;;;;;;;5.07;3.08;;;14.50;99.90;;;;;;5012610;28;20388;-72
2022/06/15 05:08:23;;;;;;;4.47;2.88;;;14.70;99.90;;;;;;5012617;28;20492;-72
2022/06/15 05:10:48;;;;;;;5.07;3.05;;;14.70;99.90;;;;;;5011955;28;20028;-71
2022/06/15 05:13:14;;;;;;;4.15;2.80;;;14.90;99.90;;;;;;5012631;28;20034;-71
2022/06/15 05:15:39;;;;;;;4.30;2.75;;;14.70;99.90;;;;;;5025672;28;20080;-76
2022/06/15 05:18:07;;;;;;;4.68;2.92;;;14.70;99.90;;;;;;5004852;28;20025;-75
2022/06/15 05:20:36;;;;;;;5.32;3.10;;;14.80;99.90;;;;;;5018449;28;20025;-74
2022/06/15 05:23:02;;;;;;;4.38;3.15;;;15.10;99.90;;;;;;5003820;28;20433;-74
2022/06/15 05:25:28;;;;;;;8.65;3.13;;;15.40;99.90;;;;;;5008054;28;20377;-74
2022/06/15 05:27:55;;;;;;;4.68;2.55;;;15.40;99.90;;;;;;5023494;28;20052;-74
2022/06/15 05:30:20;;;;;;;4.15;3.25;;;15.40;99.90;;;;;;5000819;28;20029;-74
2022/06/15 05:32:46;;;;;;;6.75;3.17;;;15.70;99.90;;;;;;5003542;28;20120;-74
2022/06/15 05:35:12;;;;;;;7.55;3.00;;;15.90;99.90;;;;;;5025741;28;20026;-74
2022/06/15 05:37:38;;;;;;;6.97;3.28;;;15.70;99.90;;;;;;5005392;28;20464;-75
2022/06/15 05:40:05;;;;;;;6.05;2.80;;;15.60;99.90;;;;;;5027925;28;20030;-74
2022/06/15 05:42:31;;;;;;;5.45;3.00;;;16.00;99.90;;;;;;5005077;28;20021;-74
2022/06/15 05:44:56;;;;;;;11.25;3.33;;;16.20;99.90;;;;;;5018742;28;20472;-74
2022/06/15 05:47:22;;;;;;;5.95;2.92;;;16.30;99.90;;;;;;5021155;28;20548;-74
2022/06/15 05:49:48;;;;;;;7.53;3.17;;;16.30;99.90;;;;;;5025254;28;20034;-75
2022/06/15 05:52:14;;;;;;;5.35;2.88;;;16.50;99.90;;;;;;5004743;28;20122;-74
2022/06/15 05:54:39;;;;;;;5.78;3.08;;;16.60;99.90;;;;;;5018764;28;20036;-75
2022/06/15 05:57:26;;;;;;;5.47;3.00;;;16.60;99.90;;;;;;5021343;28;20038;-75
2022/06/15 05:59:54;;;;;;;3.50;2.90;;;16.80;99.90;;;;;;4998026;28;20504;-77
2022/06/15 06:02:22;;;;;;;4.28;2.63;;;16.90;99.90;;;;;;5034431;28;20028;-73
2022/06/15 06:04:49;;;;;;;4.90;2.67;;;17.00;99.90;;;;;;5024366;28;20049;-74
2022/06/15 06:07:14;;;;;;;3.10;2.80;;;17.10;99.90;;;;;;5007308;28;20059;-76
2022/06/15 06:09:40;;;;;;;5.07;2.97;;;17.30;99.90;;;;;;5018868;28;20048;-74
2022/06/15 06:12:08;;;;;;;3.53;2.88;;;17.50;99.90;;;;;;5017622;28;20030;-74
2022/06/15 06:14:33;;;;;;;4.93;2.83;;;17.70;99.90;;;;;;5014073;28;20029;-74
2022/06/15 06:16:59;;;;;;;3.40;2.58;;;18.10;99.90;;;;;;4999525;28;20254;-73
2022/06/15 06:19:24;;;;;;;5.32;3.00;;;17.90;99.90;;;;;;5019133;28;20492;-74
2022/06/15 06:21:50;;;;;;;7.38;2.95;;;17.90;99.90;;;;;;5017672;28;20022;-74
2022/06/15 06:24:16;;;;;;;5.47;3.03;;;18.00;99.90;;;;;;5024656;28;20272;-74
2022/06/15 06:26:42;;;;;;;3.42;2.97;;;18.10;99.90;;;;;;5025347;28;20029;-74
2022/06/15 06:29:12;;;;;;;6.47;3.05;;;18.30;99.90;;;;;;5006540;28;20045;-74
2022/06/15 06:31:38;;;;;;;4.22;2.95;;;18.60;99.90;;;;;;5006790;28;20021;-74
2022/06/15 06:34:04;;;;;;;5.80;3.20;;;18.90;99.90;;;;;;5019500;28;20030;-74
2022/06/15 06:36:39;;;;;;;5.32;2.85;;;19.10;99.90;;;;;;5017001;28;20479;-74
2022/06/15 06:39:11;;;;;;;5.30;3.35;;;19.30;99.90;;;;;;5002728;28;20117;-74
2022/06/15 06:41:37;;;;;;;5.28;2.80;;;19.50;99.90;;;;;;5014614;28;20029;-74
2022/06/15 06:44:04;;;;;;;5.55;3.30;;;19.50;99.90;;;;;;5011521;28;20104;-73
2022/06/15 06:46:34;;;;;;;7.93;3.30;;;19.70;99.90;;;;;;5014438;28;20018;-74
2022/06/15 06:48:59;;;;;;;4.30;3.28;;;19.80;99.90;;;;;;5003341;28;20032;-74
2022/06/15 06:51:26;;;;;;;4.93;3.05;;;19.90;99.90;;;;;;5024113;28;20049;-73
2022/06/15 06:53:52;;;;;;;5.63;3.42;;;20.00;99.90;;;;;;5004209;28;20440;-74
2022/06/15 06:56:18;;;;;;;4.53;2.90;;;19.90;99.90;;;;;;5017853;28;20060;-74
2022/06/15 06:58:43;;;;;;;5.10;3.22;;;19.90;99.90;;;;;;5003287;28;20026;-74
2022/06/15 07:01:09;;;;;;;4.55;3.03;;;19.80;99.90;;;;;;5024046;28;20106;-74
2022/06/15 07:03:35;;;;;;;5.40;3.10;;;20.10;99.90;;;;;;4993815;28;20026;-74
2022/06/15 07:06:03;;;;;;;4.28;2.80;;;20.10;99.90;;;;;;5007078;28;20469;-75
2022/06/15 07:08:29;;;;;;;6.65;3.35;;;20.40;99.90;;;;;;5003841;28;20029;-74
2022/06/15 07:10:55;;;;;;;3.67;3.00;;;20.30;99.90;;;;;;5017261;28;20040;-74
2022/06/15 07:13:21;;;;;;;5.60;3.45;;;20.40;99.90;;;;;;5003332;28;20041;-74
2022/06/15 07:15:46;;;;;;;8.10;3.15;;;20.40;99.90;;;;;;4993673;28;20026;-74
2022/06/15 07:18:12;;;;;;;4.97;2.92;;;20.40;99.90;;;;;;5004188;28;20499;-74
2022/06/15 07:20:37;;;;;;;5.43;2.78;;;20.70;99.90;;;;;;5030398;28;20100;-74
2022/06/15 07:23:03;;;;;;;5.30;3.10;;;21.30;99.90;;;;;;5033041;28;20080;-74
2022/06/15 07:25:30;;;;;;;3.78;2.70;;;21.10;99.90;;;;;;5016552;28;20032;-74
2022/06/15 07:27:56;;;;;;;3.78;3.28;;;21.20;99.90;;;;;;5023167;28;20026;-73
2022/06/15 07:30:25;;;;;;;5.82;3.00;;;21.40;99.90;;;;;;5013946;28;20091;-74
2022/06/15 07:32:51;;;;;;;7.30;3.25;;;21.40;99.90;;;;;;5014225;28;20030;-75
2022/06/15 07:35:29;;;;;;;4.85;3.38;;;21.50;99.90;;;;;;5032546;28;20034;-74
2022/06/15 07:37:54;;;;;;;4.30;3.20;;;21.70;99.90;;;;;;5034066;28;20026;-75
2022/06/15 07:40:22;;;;;;;5.00;2.85;;;21.80;99.90;;;;;;5020483;28;20578;-74
2022/06/15 07:42:48;;;;;;;6.65;3.10;;;21.90;99.90;;;;;;5034064;28;20040;-74
2022/06/15 07:45:16;;;;;;;4.80;3.05;;;22.00;99.90;;;;;;5016258;28;20032;-74
2022/06/15 07:50:26;;;;;;;3.58;3.15;;;21.80;99.90;;;;;;5023655;28;20088;-75
2022/06/15 07:52:53;;;;;;;5.70;3.50;;;21.90;99.90;;;;;;5020739;28;20029;-75
2022/06/15 07:55:27;;;;;;;5.07;3.55;;;21.80;99.90;;;;;;5006187;28;20396;-74
2022/06/15 07:57:54;;;;;;;3.88;2.70;;;21.90;99.90;;;;;;5027422;28;20056;-74
2022/06/15 08:00:21;;;;;;;5.80;3.53;;;21.80;99.90;;;;;;5024748;28;20017;-74
2022/06/15 08:02:48;;;;;;;4.65;3.38;;;22.20;99.90;;;;;;5020429;28;20533;-74
2022/06/15 08:05:14;;;;;;;5.00;2.80;;;22.50;99.90;;;;;;5021728;28;20026;-74
2022/06/15 08:07:42;;;;;;;5.18;3.10;;;22.30;99.90;;;;;;5013756;28;20157;-74
2022/06/15 08:10:09;;;;;;;4.32;3.20;;;22.40;99.90;;;;;;5008026;28;20041;-74
2022/06/15 08:12:34;;;;;;;5.72;3.15;;;22.20;99.90;;;;;;5020437;28;20041;-75
2022/06/15 08:15:02;;;;;;;5.13;3.13;;;22.50;99.90;;;;;;5033580;28;20033;-74
2022/06/15 08:17:43;;;;;;;5.63;3.25;;;22.80;99.90;;;;;;5014708;28;20037;-74
2022/06/15 08:20:13;;;;;;;4.30;2.97;;;22.90;99.90;;;;;;5027106;28;20424;-74
2022/06/15 08:22:42;;;;;;;6.15;3.05;;;22.70;99.90;;;;;;5003430;28;20023;-74
2022/06/15 08:25:12;;;;;;;4.13;3.00;;;22.90;99.90;;;;;;5019997;28;20029;-74
2022/06/15 08:27:37;;;;;;;4.20;2.75;;;23.30;99.90;;;;;;5024912;28;20479;-74
2022/06/15 08:30:08;;;;;;;8.55;3.20;;;23.70;99.50;;;;;;5026853;28;20029;-74
2022/06/15 08:32:33;;;;;;;6.32;3.20;;;23.70;99.10;;;;;;5012851;28;20029;-74
2022/06/15 08:34:59;;;;;;;4.78;2.80;;;23.50;98.30;;;;;;5010694;28;20025;-74
2022/06/15 08:37:25;;;;;;;3.60;2.85;;;23.20;98.10;;;;;;5032896;28;20026;-73
2022/06/15 08:39:50;;;;;;;5.90;2.70;;;23.20;97.70;;;;;;5002229;28;20029;-74
2022/06/15 08:42:34;;;;;;;4.30;2.92;;;23.20;97.80;;;;;;5024108;28;20550;-74
2022/06/15 08:45:22;;;;;;;4.38;3.22;;;23.40;98.90;;;;;;5026523;28;20045;-73
2022/06/15 08:48:05;;;;;;;2.70;2.50;;;23.30;97.20;;;;;;5026518;28;20028;-74
2022/06/15 08:50:33;;;;;;;3.97;2.92;;;23.60;98.50;;;;;;5003889;28;20079;-74
2022/06/15 08:53:22;;;;;;;3.90;2.60;;;24.10;97.70;;;;;;5032380;28;20122;-74
2022/06/15 08:56:14;;;;;;;7.35;3.33;;;24.00;98.20;;;;;;5020052;28;20033;-74
2022/06/15 08:59:06;;;;;;;4.78;2.97;;;24.40;96.50;;;;;;4995222;28;20078;-73
2022/06/15 09:01:41;;;;;;;4.50;2.97;;;24.00;96.40;;;;;;5013800;28;20060;-74
2022/06/15 09:04:25;;;;;;;4.28;3.05;;;24.00;98.60;;;;;;5001123;28;20118;-74
2022/06/15 09:07:10;;;;;;;5.07;2.70;;;24.60;96.60;;;;;;5012848;28;20026;-73
2022/06/15 09:09:52;;;;;;;4.55;2.67;;;24.50;97.20;;;;;;5013451;28;20037;-74
2022/06/15 09:12:53;;;;;;;3.08;2.63;;;24.70;96.90;;;;;;5017479;28;20048;-74
2022/06/15 09:15:21;;;;;;;4.13;2.80;;;24.80;95.90;;;;;;5026429;28;20029;-74
2022/06/15 09:17:51;;;;;;;5.95;2.67;;;24.40;95.20;;;;;;5024705;28;20072;-75
2022/06/15 09:20:21;;;;;;;3.58;2.45;;;24.40;96.30;;;;;;5013417;28;20488;-74
2022/06/15 09:22:55;;;;;;;5.22;2.70;;;24.60;96.30;;;;;;5023787;28;20036;-72
2022/06/15 09:25:35;;;;;;;3.85;2.40;;;24.90;96.30;;;;;;5025685;28;20021;-71
2022/06/15 09:28:20;;;;;;;5.00;2.95;;;25.20;96.20;;;;;;5006615;28;20021;-72
2022/06/15 09:30:47;;;;;;;3.40;2.58;;;25.40;94.00;;;;;;5014827;28;20026;-72
2022/06/15 09:33:21;;;;;;;4.53;2.67;;;25.30;94.10;;;;;;5013453;28;20029;-71
2022/06/15 09:36:02;;;;;;;2.83;2.50;;;24.90;93.50;;;;;;5023735;28;20506;-72
2022/06/15 09:38:31;;;;;;;3.95;2.58;;;24.80;94.10;;;;;;5018824;28;20041;-72
2022/06/15 09:41:19;;;;;;;3.55;2.65;;;25.50;94.70;;;;;;5020162;28;20045;-72
2022/06/15 09:43:57;;;;;;;3.40;2.53;;;25.70;94.50;;;;;;5012298;28;20022;-74
2022/06/15 09:46:23;;;;;;;4.07;2.75;;;25.30;93.60;;;;;;5027595;28;20021;-74
2022/06/15 09:49:20;;;;;;;5.35;3.17;;;25.60;94.60;;;;;;5029688;28;20021;-74
2022/06/15 09:52:04;;;;;;;3.45;3.03;;;25.80;92.30;;;;;;5011407;28;20026;-74
2022/06/15 09:54:32;;;;;;;4.50;2.78;;;25.30;93.30;;;;;;5007476;28;20037;-73
2022/06/15 09:56:58;;;;;;;4.40;2.72;;;25.50;93.40;;;;;;5011842;28;20148;-74
2022/06/15 09:59:25;;;;;;;3.00;2.20;;;25.90;93.20;;;;;;5011745;28;20093;-74
2022/06/15 10:01:51;;;;;;;4.95;2.40;;;25.80;92.50;;;;;;5011127;28;20110;-74
2022/06/15 10:04:21;;;;;;;3.38;2.42;;;25.90;93.00;;;;;;5011875;28;20033;-74
2022/06/15 10:07:01;;;;;;;3.90;3.30;;;26.10;92.30;;;;;;5022506;28;20029;-74
2022/06/15 10:09:30;;;;;;;4.10;2.50;;;25.90;92.10;;;;;;5031316;28;20167;-73
2022/06/15 10:12:55;;;;;;;6.05;2.78;;;25.80;91.20;;;;;;5013175;28;20033;-74
2022/06/15 10:14:49;;;;;;;4.28;2.90;;;26.20;91.90;;;;;;5021726;28;20026;-74
2022/06/15 10:17:30;;;;;;;4.05;2.78;;;26.60;91.60;;;;;;5025051;28;20476;-74
2022/06/15 10:19:57;;;;;;;4.75;2.95;;;26.80;91.40;;;;;;5023715;28;20032;-74
2022/06/15 10:22:27;;;;;;;3.55;2.10;;;27.00;91.90;;;;;;5017803;28;20055;-74
2022/06/15 10:24:55;;;;;;;7.00;2.65;;;27.00;90.50;;;;;;5018967;28;20018;-74
2022/06/15 10:27:24;;;;;;;3.17;2.30;;;26.80;90.20;;;;;;5025041;28;20369;-74
2022/06/15 10:30:01;;;;;;;3.03;2.15;;;27.00;91.00;;;;;;5024940;28;20036;-74
2022/06/15 10:32:29;;;;;;;3.15;2.65;;;27.10;89.70;;;;;;5019216;28;20083;-74
2022/06/15 10:35:07;;;;;;;4.45;2.55;;;27.10;90.50;;;;;;5000662;28;20373;-74
2022/06/15 10:37:51;;;;;;;3.38;2.15;;;27.20;90.10;;;;;;5021082;28;20076;-75
2022/06/15 10:40:22;;;;;;;5.43;2.40;;;27.20;88.50;;;;;;4998888;28;20407;-74
2022/06/15 10:43:13;;;;;;;2.45;1.83;;;27.00;88.80;;;;;;5031262;28;20025;-74
2022/06/15 10:45:52;;;;;;;8.45;2.40;;;26.70;85.80;;;;;;5017669;28;20034;-74
2022/06/15 10:48:31;;;;;;;4.70;2.70;;;27.10;86.70;;;;;;5017950;28;20030;-74
2022/06/15 10:51:07;;;;;;;4.25;2.70;;;27.50;87.40;;;;;;5029233;28;20037;-74
2022/06/15 10:53:44;;;;;;;3.20;2.50;;;27.30;87.80;;;;;;5002164;28;20022;-74
2022/06/15 11:02:21;;;;;;;4.68;2.20;;;27.70;86.40;;;;;;5014574;28;20036;-74
2022/06/15 11:04:47;;;;;;;2.97;2.05;;;28.40;86.40;;;;;;5015123;28;20080;-74
2022/06/15 11:07:22;;;;;;;5.05;2.20;;;28.70;87.80;;;;;;5029175;28;20038;-74
2022/06/15 11:09:53;;;;;;;4.60;2.00;;;28.90;85.90;;;;;;5016798;28;20033;-74
2022/06/15 11:12:24;;;;;;;3.08;1.80;;;28.60;81.90;;;;;;5034045;28;20025;-74
2022/06/15 11:15:00;;;;;;;2.53;1.67;;;28.60;82.00;;;;;;5034508;28;20555;-74
2022/06/15 11:20:18;;;;;;;2.50;1.73;;;28.80;82.70;;;;;;5021188;28;20089;-74
2022/06/15 11:22:48;;;;;;;2.70;1.52;;;29.30;82.40;;;;;;5023706;28;20078;-74
2022/06/15 11:25:18;;;;;;;3.10;1.90;;;29.20;83.00;;;;;;5021225;28;20022;-75
2022/06/15 11:28:17;;;;;;;1.63;1.52;;;29.50;81.20;;;;;;5025178;28;20045;-74
2022/06/15 11:30:51;;;;;;;2.00;1.70;;;29.20;79.80;;;;;;5002735;28;20036;-74
2022/06/15 11:33:27;;;;;;;2.70;1.70;;;28.90;79.10;;;;;;5034371;28;20040;-74
2022/06/15 11:36:25;;;;;;;2.67;1.52;;;29.20;79.10;;;;;;5007305;28;20026;-75
2022/06/15 11:39:09;;;;;;;1.80;1.33;;;29.30;77.80;;;;;;5014381;28;20396;-74
2022/06/15 11:41:48;;;;;;;1.65;1.13;;;29.10;74.60;;;;;;5030101;28;20021;-75
2022/06/15 11:44:39;;;;;;;1.88;1.20;;;29.10;76.00;;;;;;5022736;28;20022;-74
2022/06/15 11:47:08;;;;;;;4.18;1.52;;;29.10;74.30;;;;;;5022402;28;20369;-74
2022/06/15 11:50:05;;;;;;;5.22;1.55;;;29.10;76.80;;;;;;5033932;28;20025;-74
2022/06/15 11:53:01;;;;;;;3.03;1.60;;;28.90;76.00;;;;;;5000762;28;20053;-74
2022/06/15 11:55:31;;;;;;;;;;;29.60;74.40;;;;;;5010783;28;20084;-73
2022/06/15 11:58:17;;;;;;;3.25;1.40;;;29.40;75.00;;;;;;5015927;28;20457;-75
2022/06/15 12:01:02;;;;;;;;;;;29.90;76.50;;;;;;5020198;28;20026;-74
2022/06/15 12:03:48;;;;;;;1.70;1.00;;;30.30;74.00;;;;;;5014023;28;20008;-75
2022/06/15 12:06:51;;;;;;;2.10;1.20;;;30.80;71.90;;;;;;5027440;28;20097;-75
2022/06/15 12:09:29;;;;;;;2.83;1.38;;;30.70;72.60;;;;;;5026413;28;20506;-73
2022/06/15 12:12:39;;;;;;;1.15;1.05;;;30.40;73.00;;;;;;5025341;28;20496;-73
2022/06/15 12:15:05;;;;;;;2.88;1.30;;;30.80;71.90;;;;;;4996351;28;20030;-73
2022/06/15 12:17:40;;;;;;;1.20;1.10;;;30.90;71.30;;;;;;5032648;28;20115;-73
2022/06/15 12:20:32;;;;;;;1.20;1.10;;;31.00;71.30;;;;;;5020234;28;20026;-75
2022/06/15 12:23:39;;;;;;;4.10;1.70;;;31.20;71.70;;;;;;4992852;28;20738;-73
2022/06/15 12:26:21;;;;;;;1.98;1.75;;;31.20;72.60;;;;;;5033355;28;20021;-74
2022/06/15 12:29:14;;;;;;;4.90;1.65;;;31.10;71.70;;;;;;5002218;28;20034;-74
2022/06/15 12:31:52;;;;;;;2.05;1.45;;;31.30;70.70;;;;;;5019666;28;20025;-74
2022/06/15 12:34:29;;;;;;;4.93;1.55;;;31.40;70.30;;;;;;5033362;28;20022;-73
2022/06/15 12:37:09;;;;;;;3.20;1.52;;;31.40;69.30;;;;;;5002329;28;20079;-73
2022/06/15 12:39:48;;;;;;;3.40;1.40;;;31.00;71.00;;;;;;5002194;28;20030;-74
2022/06/15 12:42:17;;;;;;;2.42;1.70;;;31.70;69.70;;;;;;5023498;28;20037;-73
2022/06/15 12:44:42;;;;;;;2.60;1.80;;;31.20;69.00;;;;;;5008956;28;20036;-74
2022/06/15 12:47:16;;;;;;;2.60;1.40;;;30.60;69.80;;;;;;5023241;28;20025;-74
2022/06/15 12:50:19;;;;;;;2.95;1.98;;;31.10;71.40;;;;;;5002152;28;20026;-73
2022/06/15 12:53:06;;;;;;;4.25;1.52;;;32.10;71.90;;;;;;5001822;28;20032;-73
2022/06/15 12:55:49;;;;;;;7.75;1.52;;;32.50;69.90;;;;;;5020809;28;20101;-74
2022/06/15 12:58:36;;;;;;;3.45;1.60;;;32.40;70.50;;;;;;5024067;28;20062;-74
2022/06/15 13:01:13;;;;;;;2.58;1.70;;;32.70;68.80;;;;;;5015296;28;20045;-75
2022/06/15 13:04:12;;;;;;;3.33;1.42;;;32.60;69.80;;;;;;5012981;28;20022;-75
2022/06/15 13:06:40;;;;;;;2.65;1.48;;;32.40;68.60;;;;;;5022964;28;20021;-74
2022/06/15 13:09:14;;;;;;;2.03;1.50;;;32.00;69.60;;;;;;5019072;28;20076;-75
2022/06/15 13:12:09;;;;;;;3.75;1.50;;;32.10;70.40;;;;;;5020631;28;20017;-75
2022/06/15 13:14:57;;;;;;;7.35;1.77;;;33.00;67.20;;;;;;5020886;28;20029;-74
2022/06/15 13:17:29;;;;;;;4.82;1.65;;;33.20;66.00;;;;;;5019139;28;20026;-74
2022/06/15 13:20:06;;;;;;;4.45;2.15;;;33.40;67.70;;;;;;5014490;28;20022;-75
2022/06/15 13:22:42;;;;;;;2.95;1.80;;;32.90;67.50;;;;;;5025620;28;20515;-75
2022/06/15 13:25:07;;;;;;;3.55;1.60;;;33.40;68.90;;;;;;5001429;28;20125;-75
2022/06/15 13:27:45;;;;;;;1.60;1.40;;;33.50;68.00;;;;;;5024470;28;20113;-74